Du har inga inställningar för hoppväder.nu

Hoppväder.nu

Senast uppdaterat 10:12

UTC-tid

2020-08-06 kl. 08:12


Sol och måne

Solen går upp 5:04 och går ner 22:07 (beräknade cirkatider)
Nästa fullmåne blir om 27 dagar (2020-09-02)

METAR

ESOE (Örebro)
(22 minuter sedan)
ESOE 060750Z AUTO 23008KT 200V270 9999 OVC010/// 19/16 Q1019=



ESOK (Karlstad)
(22 minuter sedan)
ESOK 060750Z 23007KT 9999 OVC011 18/16 Q1019=



ESGR (Skövde)
(22 minuter sedan)
ESGR 060750Z 21007KT 9999 FEW022 20/16 Q1020=



ESSD (Borlänge)
(22 minuter sedan)
ESSD 060750Z 23008KT 9999 SCT020 BKN029 19/14 Q1018=



ESOW (Västerås)
(22 minuter sedan)
ESOW 060750Z 24006KT 200V280 9999 BKN013 19/15 Q1019=



TAF

ESOE (Örebro)
(162 minuter sedan)
ESOE 060530Z 0606/0608 22010KT 9999 BKN006 BECMG 0606/0608 BKN012=



ESOK (Karlstad)
(-18 minuter sedan)
ESOK 060830Z 0609/0615 22008KT 9999 BKN025 PROB40 0609/0610 BKN014=



ESGR (Skövde)
ESGR



ESSD (Borlänge)
(-18 minuter sedan)
ESSD 060830Z 0609/0613 23008KT 9999 BKN025=



ESOW (Västerås)
(-18 minuter sedan)
ESOW 060830Z 0609/0615 24008KT 9999 BKN025=





Kodnycklar till TAF och METAR






LHP

(Örebro är område se32g i Delområde 4)

Översikt

ÖVERSIKT FÖR OMRÅDE se3 UTFÄRDAD 060724

GÄLLANDE DEN 6 AUGUSTI 2020 MELLAN 08 OCH 16 UTC


Väderöversikt

En högtrycksrygg förstärks över södra Sverige.

Sikt under 5 kilometer eller molnbas under 1000 fot
08-10UTC: Hela området utom se33
10-12UTC: Område se31


Måttlig eller svår isbildning
Väntas inte förekomma under perioden

Måttlig eller svår turbulens
Väntas inte förekomma under perioden

Delområde 4

PROGNOS FÖR OMRÅDE se32 UTFÄRDAD 060724
GÄLLANDE DEN 6 AUGUSTI 2020 MELLAN 08 OCH 16 UTC

Måttlig eller svår turbulens
08-16UTC: I hela området: Väntas inte förekomma under perioden

Måttlig eller svår isbildning
08-16UTC: I hela området: Väntas inte förekomma under perioden

Sikt/Väder/Moln
08-10UTC: Område se32b,se32a,se32h,se32g,se32i: Sikt 3km - >8km i duggregn, regn. Molnbas 1000ft - >2000ft.
Område se32d,se32f,se32e: Sikt 1.5km - >8km i dis, duggregn, regn. Molnbas 500ft - >2000ft.

08-16UTC: Område se32c,se32j: Sikt >8km. Molnbas >2000ft.

10-12UTC: Område se32d: Sikt 5km - >8km i duggregn, regn. Molnbas 1500ft - >2000ft.

10-16UTC: Område se32b,se32a,se32h,se32g,se32f,se32e,se32i: Sikt >8km. Molnbas >2000ft.

12-16UTC: Område se32d: Sikt >8km. Molnbas >2000ft.


Molnöversida
08-10UTC: Område se32c,se32b,se32a,se32j,se32i: Molnöversida FL100.

08-12UTC: Område se32d,se32h,se32g,se32f,se32e: Molnöversida > FL125.

10-12UTC: Område se32c,se32b,se32a,se32j,se32i: Molnöversida FL080.

12-16UTC: Område se32b,se32a,se32h,se32g,se32f,se32e: Molnöversida FL060.
Område se32c,se32j,se32i: Ingen prognos
Område se32d: Molnöversida FL100.


CB/TCU Moln
08-16UTC: I hela området: Väntas inte förekomma under perioden

Nollgradersisoterm
08-10UTC: Noll grader FL110 - > FL125.
10-12UTC: Noll grader FL115 - > FL125.
12-16UTC: Noll grader FL110 - > FL125.

Vind vid marken
08-10UTC: Område se32e: SV-V/5-13 knop, byar upp till 20 knop.
Område se32j: SV-V/5-12 knop, byar upp till 20 knop.
Område se32i: SV-V/5-10 knop, byar upp till 19 knop.
Område se32c: SV/2-11 knop, byar upp till 19 knop.
Område se32a: SV/5-15 knop, byar upp till 21 knop.
Område se32g: SV-V/5-9 knop, byar upp till 18 knop.
Område se32h: SV-V/4-11 knop, byar upp till 19 knop.
Område se32f: SV-V/5-9 knop, byar upp till 19 knop.
Område se32b: SV-V/3-11 knop, byar upp till 20 knop.
Område se32d: SV-V/4-11 knop, byar upp till 18 knop.

10-12UTC: Område se32c: S-SV/5-14 knop, byar upp till 21 knop.
Område se32a: SV/3-13 knop, byar upp till 20 knop.
Område se32b: SV/0-13 knop, byar upp till 20 knop.
Område se32g,se32f: V/4-9 knop, byar upp till 19 knop.
Område se32j: SV-V/5-11 knop, byar upp till 24 knop.
Område se32i: V/3-10 knop, byar upp till 20 knop.
Område se32d: SV-V/4-10 knop, byar upp till 21 knop.
Område se32h: SV-V/3-10 knop, byar upp till 19 knop.
Område se32e: SV-V/5-12 knop, byar upp till 21 knop.

12-14UTC: Område se32j: V/4-11 knop, byar upp till 24 knop.
Område se32h: V/3-10 knop, byar upp till 21 knop.
Område se32g: V/4-10 knop, byar upp till 21 knop.
Område se32b: S-SV/1-14 knop, byar upp till 25 knop.
Område se32a: SV/2-15 knop, byar upp till 21 knop.
Område se32d: SV-V/0-13 knop, byar upp till 22 knop.
Område se32f: V/4-8 knop, byar upp till 17 knop.
Område se32i: V/2-11 knop, byar upp till 22 knop.
Område se32e: SV-V/5-13 knop, byar upp till 22 knop.
Område se32c: S-SV/5-17 knop, byar upp till 21 knop.

14-16UTC: Område se32d: SV-V/3-13 knop, byar upp till 19 knop.
Område se32j: V/3-10 knop, byar upp till 22 knop.
Område se32c: SV/2-16 knop, byar upp till 22 knop.
Område se32g: V/3-10 knop, byar upp till 21 knop.
Område se32a: SV/0-13 knop, byar upp till 20 knop.
Område se32b: SV/2-13 knop, byar upp till 24 knop.
Område se32e: SV-V/5-12 knop, byar upp till 22 knop.
Område se32h: V/1-10 knop, byar upp till 20 knop.
Område se32i: V-NV/0-10 knop, byar upp till 21 knop.
Område se32f: V-NV/4-9 knop, byar upp till 18 knop.


Genomsnittlig vind och temperatur för området
2000ft:
08-10UTC: 260/15kt +13.
10-12UTC: 260/13kt +15.
12-14UTC: 260/14kt +17.
14-16UTC: 270/13kt +18.

FL50:
08-10UTC: 270/25kt +10.
10-12UTC: 270/21kt +11.
12-14UTC: 270/18kt +11.
14-16UTC: 270/17kt +11.

FL100:
08-10UTC: 270/26kt +3.
10-12UTC: 260/22kt +3.
12-14UTC: 260/18kt +3.
14-16UTC: 260/15kt +3.

Lägsta QNH
1019 hPa.

OBS! endast utbredd måttlig eller svår isbildning och turbulens prognostiseras i LLF.
Avsaknad av isbildning och turbulens i prognosen utesluter inte förekomst av lätt isbildning och turbulens.
För indikation på lätt isbildning, var vänlig kontrollera om prognosen för molntopp ligger högre än nollgradersisotermen.
Förekomst av TCU eller CB medför alltid en risk för måttlig eller svår isbildning och turbulens även om det inte framgår explicit av prognosen.







Spotting

Hur fungerar spotthjälpen och Vindkartan?

Markvind är ca 3-5 m/s med byar på 9 m/s.
Vind på 600 m ca 8 m/s.
Vind på 1500 m ca 13 m/s.
Vind på 3000 m ca 13 m/s.
FXB flyger ca 23 m/s över marken på finalen.
Du driver ca 602 m bakåt i frifall. (803 m)
Lämplig spot är 14 sekunder eller 317 m efter gropen.
(23 s eller 521 m)
För små grupper eller ensamhoppare bör man vänta 7-9 sekunder mellan grupperna.
För större grupper bör man vänta 13-16 sekunder mellan grupperna.


Vindkartan

Senast uppdaterad 10:12




All data kommer från LFV.se